Butterworth Airport Butterworth MY
ICAO: WMKB
IATA:
Category: Medium
Scheduled Services:

Elevation: 11 ft
TransAlt. 11000 ft.

Airport Communications:
APP:125.8
ATIS:23.01
DEP:128.5
GND:134.6
TWR:118.3

WMKB Zoom In..

If you have problems with the map follow the link
https://www.worldairports.se/pages/airport.php?
ICAO=WMKB

Runways:

(A) RW 18 length 7999 ft width 150 ft
---- / hdg 184

(B) RW 36 length 7999 ft width 150 ft
---- / hdg 4

Location; WMKB
Day. 14 / Time. 08.00 Zulu
* QNH: 1007
* Temperature: 30° c. 86°f.
* Wind from: 300° Speed 08 kn.
Dewpoint: 25° c.
Visibility: 7000 m.
Clouds: Few 1700 ft.
Clouds: Scattered 14000 ft.
Clouds: Broken 27000 ft.

WMKB 140800Z 30008KT 250V350 7000 VCSH FEW017CB SCT140 BKN270 30/25 Q1007 TEMPO 6000 -TSRA


Wind From 300°
Speed 08 kn.

 
 
jpsmedia worldairports.se 2019   terms of use